Olib — 9AA6266 — position and weather

sailwx.info

Track history (hours):
 
Tides and Currents Weather Stations Pressure Air Temp Water Temp Dewpoint Dewpoint Depression Visibility Wind Speed Wind Dir Waves Ship Positions

Olib

Last reported at 2017-Feb-22 08:33 UTC. Time now 2017-Feb-24 00:01 UTC.
Position N 60°06' E 028°21'.

Length 247 m; draft 14.9 m.

Type: Ship. MMSI: 238252000.

Date/timePositionNaut miles runAvg speedWind from/ knotsBaromVisibWave heightAir tempDewpointWater temp
2017-Feb-22 08:33N 60°06' E 028°21'8 7.8
2017-Feb-22 07:33N 60°03' E 028°35'5 5.2
2017-Feb-22 06:34N 59°58' E 028°35'4 3.9
2017-Feb-22 05:33N 59°54' E 028°32'9 9.4
2017-Feb-22 04:33N 59°46' E 028°24'3 3.0
2017-Feb-22 03:30N 59°43' E 028°26'0 0.0
2017-Feb-22 02:28N 59°43' E 028°26'0 0.0
2017-Feb-22 01:33N 59°43' E 028°26'0 0.0
2017-Feb-22 00:33N 59°43' E 028°26'0 0.0
2017-Feb-21 23:30N 59°43' E 028°26'0 0.0
2017-Feb-21 22:33N 59°43' E 028°26'0 0.0
2017-Feb-21 21:33N 59°43' E 028°26'0 0.0
2017-Feb-21 20:33N 59°43' E 028°26'0 0.0
2017-Feb-21 19:24N 59°43' E 028°26'0 0.0
2017-Feb-21 18:21N 59°43' E 028°26'0 0.0
2017-Feb-21 17:21N 59°43' E 028°26'0 0.0
2017-Feb-21 16:27N 59°43' E 028°26'0 0.0
2017-Feb-21 15:09N 59°43' E 028°26'0 0.0
2017-Feb-21 14:30N 59°43' E 028°26'0 0.0
2017-Feb-21 13:24N 59°43' E 028°26'0 0.0
2017-Feb-21 12:12N 59°43' E 028°26'0 0.0
2017-Feb-21 11:27N 59°43' E 028°26'0 0.0
2017-Feb-21 10:30N 59°43' E 028°26'0 0.0
2017-Feb-21 09:33N 59°43' E 028°26'0 0.0
2017-Feb-21 08:30N 59°43' E 028°26'0 0.0
2017-Feb-21 07:21N 59°43' E 028°26'0 0.0
2017-Feb-21 06:33N 59°43' E 028°26'0 0.0
2017-Feb-21 05:18N 59°43' E 028°26'0 0.0
2017-Feb-20 22:30N 59°43' E 028°26'0 0.0
2017-Feb-20 21:30N 59°43' E 028°26'1 1.1
2017-Feb-20 20:33N 59°42' E 028°25'6 6.5
2017-Feb-20 19:33N 59°48' E 028°25'1010.4
2017-Feb-20 18:33N 59°56' E 028°37'0 0.1
2017-Feb-20 17:20N 59°56' E 028°37'0 0.1
2017-Feb-20 16:32N 59°56' E 028°37'0 0.1
2017-Feb-20 15:32N 59°56' E 028°37'0 0.1
2017-Feb-20 14:32N 59°56' E 028°37'0 0.1
2017-Feb-20 13:26N 59°56' E 028°38'0 0.1
2017-Feb-20 12:26N 59°56' E 028°38'0 0.0
2017-Feb-20 11:26N 59°56' E 028°38'0 0.0
2017-Feb-20 10:29N 59°56' E 028°38'0 0.0
2017-Feb-20 09:29N 59°56' E 028°38'0 0.4
2017-Feb-20 08:29N 59°56' E 028°37'0 0.3
2017-Feb-20 07:33N 59°56' E 028°37'4 3.4
2017-Feb-20 06:24N 59°56' E 028°45'0 0.0
2017-Feb-20 05:24N 59°56' E 028°45'0 0.1
2017-Feb-20 02:24N 59°56' E 028°44'1 0.2
2017-Feb-19 21:33N 59°56' E 028°42'0 0.2
2017-Feb-19 20:33N 59°55' E 028°42'0 0.1
2017-Feb-19 19:21N 59°55' E 028°42'0 0.2
2017-Feb-19 18:33N 59°55' E 028°42'0 0.1
2017-Feb-19 17:33N 59°55' E 028°41'1 0.2
2017-Feb-19 14:30N 59°56' E 028°40'2 1.4
2017-Feb-19 13:11N 59°57' E 028°41'0 0.4
2017-Feb-19 12:29N 59°57' E 028°40'0 0.2
2017-Feb-19 11:29N 59°57' E 028°40'0 0.2
2017-Feb-19 10:32N 59°57' E 028°39'0 0.0
2017-Feb-19 08:32N 59°57' E 028°39'0 0.1
2017-Feb-19 07:32N 59°57' E 028°39'0 0.1
2017-Feb-19 06:29N 59°57' E 028°39'0 0.0
2017-Feb-19 05:20N 59°57' E 028°39'0 0.1
2017-Feb-19 04:32N 59°57' E 028°39'0 0.1
2017-Feb-19 03:32N 59°57' E 028°39'0 0.1
2017-Feb-19 02:23N 59°57' E 028°39'0 0.1
2017-Feb-19 01:26N 59°57' E 028°39'0 0.1
2017-Feb-19 00:23N 59°56' E 028°39'0 0.0
2017-Feb-18 23:26N 59°56' E 028°39'0 0.0
2017-Feb-18 22:22N 59°56' E 028°39'0 0.0
2017-Feb-18 21:29N 59°56' E 028°39'0 0.0
2017-Feb-18 20:29N 59°56' E 028°39'0 0.0
2017-Feb-18 19:32N 59°56' E 028°39'0 0.0
2017-Feb-18 18:31N 59°56' E 028°39'0 0.0
2017-Feb-18 17:32N 59°56' E 028°39'0 0.0
2017-Feb-18 16:31N 59°56' E 028°39'0 0.0
2017-Feb-18 15:32N 59°56' E 028°39'0 0.3
2017-Feb-18 14:31N 59°57' E 028°38'0 0.3
2017-Feb-18 13:31N 59°57' E 028°38'0 0.5
2017-Feb-18 12:33N 59°57' E 028°37'4 4.3
2017-Feb-18 11:33N 60°01' E 028°36'8 8.2
2017-Feb-18 10:33N 60°05' E 028°21'9 8.6
2017-Feb-18 09:33N 60°09' E 028°06'  
Track history (hours):
 
Tides and Currents Weather Stations Pressure Air Temp Water Temp Dewpoint Dewpoint Depression Visibility Wind Speed Wind Dir Waves Ship Positions

Olib

Last reported at 2017-Feb-22 08:33 UTC. Time now 2017-Feb-24 00:01 UTC.
Position N 60°06' E 028°21'.

Length 247 m; draft 14.9 m.

Type: Ship. MMSI: 238252000.

Date/timePositionNaut miles runAvg speedWind from/ knotsBaromVisibWave heightAir tempDewpointWater temp
2017-Feb-22 08:33N 60°06' E 028°21'8 7.8
2017-Feb-22 07:33N 60°03' E 028°35'5 5.2
2017-Feb-22 06:34N 59°58' E 028°35'4 3.9
2017-Feb-22 05:33N 59°54' E 028°32'9 9.4
2017-Feb-22 04:33N 59°46' E 028°24'3 3.0
2017-Feb-22 03:30N 59°43' E 028°26'0 0.0
2017-Feb-22 02:28N 59°43' E 028°26'0 0.0
2017-Feb-22 01:33N 59°43' E 028°26'0 0.0
2017-Feb-22 00:33N 59°43' E 028°26'0 0.0
2017-Feb-21 23:30N 59°43' E 028°26'0 0.0
2017-Feb-21 22:33N 59°43' E 028°26'0 0.0
2017-Feb-21 21:33N 59°43' E 028°26'0 0.0
2017-Feb-21 20:33N 59°43' E 028°26'0 0.0
2017-Feb-21 19:24N 59°43' E 028°26'0 0.0
2017-Feb-21 18:21N 59°43' E 028°26'0 0.0
2017-Feb-21 17:21N 59°43' E 028°26'0 0.0
2017-Feb-21 16:27N 59°43' E 028°26'0 0.0
2017-Feb-21 15:09N 59°43' E 028°26'0 0.0
2017-Feb-21 14:30N 59°43' E 028°26'0 0.0
2017-Feb-21 13:24N 59°43' E 028°26'0 0.0
2017-Feb-21 12:12N 59°43' E 028°26'0 0.0
2017-Feb-21 11:27N 59°43' E 028°26'0 0.0
2017-Feb-21 10:30N 59°43' E 028°26'0 0.0
2017-Feb-21 09:33N 59°43' E 028°26'0 0.0
2017-Feb-21 08:30N 59°43' E 028°26'0 0.0
2017-Feb-21 07:21N 59°43' E 028°26'0 0.0
2017-Feb-21 06:33N 59°43' E 028°26'0 0.0
2017-Feb-21 05:18N 59°43' E 028°26'0 0.0
2017-Feb-20 22:30N 59°43' E 028°26'0 0.0
2017-Feb-20 21:30N 59°43' E 028°26'1 1.1
2017-Feb-20 20:33N 59°42' E 028°25'6 6.5
2017-Feb-20 19:33N 59°48' E 028°25'1010.4
2017-Feb-20 18:33N 59°56' E 028°37'0 0.1
2017-Feb-20 17:20N 59°56' E 028°37'0 0.1
2017-Feb-20 16:32N 59°56' E 028°37'0 0.1
2017-Feb-20 15:32N 59°56' E 028°37'0 0.1
2017-Feb-20 14:32N 59°56' E 028°37'0 0.1
2017-Feb-20 13:26N 59°56' E 028°38'0 0.1
2017-Feb-20 12:26N 59°56' E 028°38'0 0.0
2017-Feb-20 11:26N 59°56' E 028°38'0 0.0
2017-Feb-20 10:29N 59°56' E 028°38'0 0.0
2017-Feb-20 09:29N 59°56' E 028°38'0 0.4
2017-Feb-20 08:29N 59°56' E 028°37'0 0.3
2017-Feb-20 07:33N 59°56' E 028°37'4 3.4
2017-Feb-20 06:24N 59°56' E 028°45'0 0.0
2017-Feb-20 05:24N 59°56' E 028°45'0 0.1
2017-Feb-20 02:24N 59°56' E 028°44'1 0.2
2017-Feb-19 21:33N 59°56' E 028°42'0 0.2
2017-Feb-19 20:33N 59°55' E 028°42'0 0.1
2017-Feb-19 19:21N 59°55' E 028°42'0 0.2
2017-Feb-19 18:33N 59°55' E 028°42'0 0.1
2017-Feb-19 17:33N 59°55' E 028°41'1 0.2
2017-Feb-19 14:30N 59°56' E 028°40'2 1.4
2017-Feb-19 13:11N 59°57' E 028°41'0 0.4
2017-Feb-19 12:29N 59°57' E 028°40'0 0.2
2017-Feb-19 11:29N 59°57' E 028°40'0 0.2
2017-Feb-19 10:32N 59°57' E 028°39'0 0.0
2017-Feb-19 08:32N 59°57' E 028°39'0 0.1
2017-Feb-19 07:32N 59°57' E 028°39'0 0.1
2017-Feb-19 06:29N 59°57' E 028°39'0 0.0
2017-Feb-19 05:20N 59°57' E 028°39'0 0.1
2017-Feb-19 04:32N 59°57' E 028°39'0 0.1
2017-Feb-19 03:32N 59°57' E 028°39'0 0.1
2017-Feb-19 02:23N 59°57' E 028°39'0 0.1
2017-Feb-19 01:26N 59°57' E 028°39'0 0.1
2017-Feb-19 00:23N 59°56' E 028°39'0 0.0
2017-Feb-18 23:26N 59°56' E 028°39'0 0.0
2017-Feb-18 22:22N 59°56' E 028°39'0 0.0
2017-Feb-18 21:29N 59°56' E 028°39'0 0.0
2017-Feb-18 20:29N 59°56' E 028°39'0 0.0
2017-Feb-18 19:32N 59°56' E 028°39'0 0.0
2017-Feb-18 18:31N 59°56' E 028°39'0 0.0
2017-Feb-18 17:32N 59°56' E 028°39'0 0.0
2017-Feb-18 16:31N 59°56' E 028°39'0 0.0
2017-Feb-18 15:32N 59°56' E 028°39'0 0.3
2017-Feb-18 14:31N 59°57' E 028°38'0 0.3
2017-Feb-18 13:31N 59°57' E 028°38'0 0.5
2017-Feb-18 12:33N 59°57' E 028°37'4 4.3
2017-Feb-18 11:33N 60°01' E 028°36'8 8.2
2017-Feb-18 10:33N 60°05' E 028°21'9 8.6
2017-Feb-18 09:33N 60°09' E 028°06'  

Dump ship's entire track history